createdAt,value
2023-05-05T00:00:35.032Z,27.57
2023-05-05T00:03:03.114Z,27.93
2023-05-05T00:05:31.706Z,29.60
2023-05-05T00:08:00.127Z,28.13
2023-05-05T00:10:28.365Z,29.20
2023-05-05T00:12:56.259Z,30.10
2023-05-05T00:15:24.247Z,26.87
2023-05-05T00:17:52.239Z,21.60
2023-05-05T00:20:20.338Z,23.63
2023-05-05T00:22:48.608Z,16.50
2023-05-05T00:25:16.880Z,16.37
2023-05-05T00:27:45.245Z,13.67
2023-05-05T00:30:16.053Z,15.37
2023-05-05T00:32:44.537Z,14.60
2023-05-05T00:35:12.481Z,15.13
2023-05-05T00:37:40.734Z,15.90
2023-05-05T00:40:10.030Z,18.57
2023-05-05T00:42:43.976Z,17.30
2023-05-05T00:45:13.425Z,17.80
2023-05-05T00:47:48.680Z,18.27
2023-05-05T00:50:27.952Z,19.43
2023-05-05T00:53:03.114Z,22.53
2023-05-05T00:55:33.245Z,20.40
2023-05-05T00:58:03.323Z,18.77
2023-05-05T01:00:31.858Z,36.53
2023-05-05T01:03:00.280Z,49.03
2023-05-05T01:05:41.706Z,59.50
2023-05-05T01:08:24.863Z,66.10
2023-05-05T01:10:57.720Z,65.37
2023-05-05T01:13:35.929Z,70.20
2023-05-05T01:16:19.256Z,74.13
2023-05-05T01:19:19.098Z,81.70
2023-05-05T01:21:50.390Z,75.40
2023-05-05T01:24:54.690Z,74.07
2023-05-05T01:27:38.714Z,63.30
2023-05-05T01:30:45.131Z,60.07
2023-05-05T01:33:16.077Z,51.93
2023-05-05T01:35:53.433Z,44.37
2023-05-05T01:38:34.512Z,45.57
2023-05-05T01:41:20.469Z,39.97
2023-05-05T01:43:50.510Z,31.07
2023-05-05T01:46:19.895Z,32.73
2023-05-05T01:48:49.200Z,25.60
2023-05-05T01:51:18.652Z,34.23
2023-05-05T01:53:47.597Z,24.07
2023-05-05T01:56:16.711Z,23.50
2023-05-05T01:58:45.638Z,44.10
2023-05-05T02:01:14.233Z,27.87
2023-05-05T02:03:45.446Z,31.27
2023-05-05T02:06:15.969Z,31.30
2023-05-05T02:08:45.356Z,29.33
2023-05-05T02:11:13.654Z,30.10
2023-05-05T02:13:43.373Z,28.27
2023-05-05T02:16:12.556Z,29.07
2023-05-05T02:18:41.790Z,37.43
2023-05-05T02:21:11.009Z,27.50
2023-05-05T02:23:40.100Z,32.20
2023-05-05T02:26:10.175Z,29.80
2023-05-05T02:28:42.713Z,33.53
2023-05-05T02:31:11.745Z,31.90
2023-05-05T02:33:41.657Z,44.47
2023-05-05T02:36:20.111Z,33.77
2023-05-05T02:38:50.785Z,36.87
2023-05-05T02:41:21.240Z,37.57
2023-05-05T02:43:50.819Z,33.23
2023-05-05T02:46:27.188Z,31.83
2023-05-05T02:48:58.917Z,31.97
2023-05-05T02:51:28.110Z,35.27
2023-05-05T02:53:59.523Z,33.77
2023-05-05T02:56:33.710Z,38.00
2023-05-05T02:59:26.767Z,39.17
2023-05-05T03:02:04.133Z,36.83
2023-05-05T03:04:39.974Z,38.80
2023-05-05T03:07:13.653Z,31.80
2023-05-05T03:09:49.119Z,26.23
2023-05-05T03:12:22.630Z,26.00
2023-05-05T03:14:52.632Z,30.63
2023-05-05T03:17:22.453Z,29.53
2023-05-05T03:19:51.598Z,31.53
2023-05-05T03:22:19.928Z,30.37
2023-05-05T03:24:52.216Z,29.43
2023-05-05T03:27:21.119Z,22.67
2023-05-05T03:29:49.330Z,34.47
2023-05-05T03:32:17.548Z,21.43
2023-05-05T03:34:45.676Z,23.80
2023-05-05T03:37:14.167Z,24.97
2023-05-05T03:39:42.561Z,26.47
2023-05-05T03:42:10.755Z,17.77
2023-05-05T03:44:39.436Z,20.07
2023-05-05T03:47:08.217Z,26.10
2023-05-05T03:49:36.411Z,28.47
2023-05-05T03:52:04.603Z,27.80
2023-05-05T03:54:32.882Z,27.13
2023-05-05T03:57:00.885Z,29.13
2023-05-05T03:59:29.034Z,25.03
2023-05-05T04:01:57.294Z,22.77
2023-05-05T04:04:28.288Z,25.17
2023-05-05T04:06:56.533Z,24.23
2023-05-05T04:09:24.702Z,23.90
2023-05-05T04:11:52.667Z,33.43
2023-05-05T04:14:20.912Z,25.37
2023-05-05T04:16:49.116Z,41.90
2023-05-05T04:19:18.006Z,20.07
2023-05-05T04:21:46.299Z,28.37
2023-05-05T04:24:14.135Z,21.83
2023-05-05T04:26:42.826Z,21.38
2023-05-05T04:29:11.327Z,22.67
2023-05-05T04:31:41.020Z,14.48
2023-05-05T04:34:09.351Z,15.50
2023-05-05T04:36:37.543Z,17.48
2023-05-05T04:39:07.347Z,15.82
2023-05-05T04:41:38.206Z,14.80
2023-05-05T04:44:06.899Z,9.05
2023-05-05T04:46:35.284Z,8.65
2023-05-05T04:49:05.988Z,9.13
2023-05-05T04:51:34.906Z,8.55
2023-05-05T04:54:03.319Z,10.65
2023-05-05T04:56:32.534Z,10.07
2023-05-05T04:59:00.702Z,9.40
2023-05-05T05:01:28.843Z,8.40
2023-05-05T05:03:57.247Z,8.50
2023-05-05T05:06:25.836Z,7.07
2023-05-05T05:08:54.133Z,7.20
2023-05-05T05:11:22.998Z,7.43
2023-05-05T05:13:51.795Z,8.20
2023-05-05T05:16:19.906Z,7.60
2023-05-05T05:18:48.065Z,7.55
2023-05-05T05:21:16.739Z,8.32
2023-05-05T05:23:44.984Z,10.02
2023-05-05T05:26:13.497Z,10.10
2023-05-05T05:28:43.016Z,9.02
2023-05-05T05:31:11.477Z,9.50
2023-05-05T05:33:40.580Z,10.23
2023-05-05T05:36:09.026Z,10.45
2023-05-05T05:38:37.575Z,14.68
2023-05-05T05:41:08.491Z,15.43
2023-05-05T05:43:36.601Z,15.63
2023-05-05T05:46:05.865Z,11.52
2023-05-05T05:48:35.656Z,11.95
2023-05-05T05:51:03.958Z,9.32
2023-05-05T05:53:32.233Z,9.18
2023-05-05T05:56:01.837Z,11.07
2023-05-05T05:58:30.379Z,12.13
2023-05-05T06:01:00.264Z,10.38
2023-05-05T06:03:31.292Z,8.95
2023-05-05T06:05:59.571Z,6.80
2023-05-05T06:08:27.558Z,6.47
2023-05-05T06:10:55.604Z,6.97
2023-05-05T06:13:23.891Z,6.72
2023-05-05T06:15:52.002Z,7.45
2023-05-05T06:18:20.575Z,7.32
2023-05-05T06:20:51.870Z,8.95
2023-05-05T06:23:23.133Z,8.55
2023-05-05T06:25:52.020Z,5.95
2023-05-05T06:28:20.569Z,6.07
2023-05-05T06:30:48.718Z,6.80
2023-05-05T06:33:17.237Z,6.20
2023-05-05T06:35:47.381Z,6.60
2023-05-05T06:38:16.558Z,7.35
2023-05-05T06:40:44.504Z,7.30
2023-05-05T06:43:12.584Z,5.43
2023-05-05T06:45:41.906Z,5.18
2023-05-05T06:48:11.288Z,5.95
2023-05-05T06:50:39.201Z,5.78
2023-05-05T06:53:07.370Z,5.57
2023-05-05T06:55:35.599Z,5.97
2023-05-05T06:58:03.763Z,9.13
2023-05-05T07:00:35.521Z,4.82
2023-05-05T07:03:04.208Z,5.32
2023-05-05T07:05:32.637Z,6.40
2023-05-05T07:08:02.413Z,5.40
2023-05-05T07:10:31.870Z,5.93
2023-05-05T07:13:00.118Z,7.47
2023-05-05T07:15:29.632Z,9.20
2023-05-05T07:17:58.625Z,7.93
2023-05-05T07:20:27.020Z,7.10
2023-05-05T07:22:55.554Z,8.00
2023-05-05T07:25:23.564Z,7.28
2023-05-05T07:27:51.794Z,6.75
2023-05-05T07:30:20.065Z,7.57
2023-05-05T07:32:50.658Z,7.30
2023-05-05T07:35:19.772Z,6.93
2023-05-05T07:37:47.717Z,8.70
2023-05-05T07:40:18.177Z,9.20
2023-05-05T07:42:59.339Z,9.25
2023-05-05T07:45:29.100Z,9.68
2023-05-05T07:48:01.515Z,8.80
2023-05-05T07:50:30.246Z,9.43
2023-05-05T07:53:10.878Z,8.27
2023-05-05T07:55:42.888Z,8.05
2023-05-05T07:58:12.102Z,8.52
2023-05-05T08:00:40.412Z,8.23
2023-05-05T08:03:11.597Z,8.65
2023-05-05T08:05:40.932Z,7.97
2023-05-05T08:08:09.258Z,7.70
2023-05-05T08:10:38.955Z,7.68
2023-05-05T08:13:10.071Z,7.47
2023-05-05T08:15:38.538Z,7.47
2023-05-05T08:18:07.035Z,4.95
2023-05-05T08:20:35.367Z,5.38
2023-05-05T08:23:03.590Z,5.20
2023-05-05T08:25:31.729Z,5.57
2023-05-05T08:27:59.976Z,4.65
2023-05-05T08:30:28.188Z,5.05
2023-05-05T08:32:56.847Z,4.60
2023-05-05T08:35:25.536Z,5.30
2023-05-05T08:37:54.073Z,5.93
2023-05-05T08:40:25.566Z,4.40
2023-05-05T08:42:53.748Z,4.68
2023-05-05T08:45:21.944Z,4.15
2023-05-05T08:47:49.943Z,7.03
2023-05-05T08:50:17.966Z,4.07
2023-05-05T08:52:53.253Z,4.32
2023-05-05T08:55:27.097Z,4.53
2023-05-05T08:57:57.580Z,4.55
2023-05-05T09:00:27.695Z,4.38
2023-05-05T09:03:00.353Z,3.72
2023-05-05T09:05:28.754Z,5.10
2023-05-05T09:07:57.120Z,4.72
2023-05-05T09:10:27.698Z,3.42
2023-05-05T09:12:55.837Z,4.18
2023-05-05T09:18:09.912Z,3.67
2023-05-05T09:20:40.504Z,3.47
2023-05-05T09:23:15.535Z,2.67
2023-05-05T09:26:04.934Z,2.97
2023-05-05T09:28:36.210Z,3.05
2023-05-05T09:31:15.905Z,2.70
2023-05-05T09:33:44.749Z,3.10
2023-05-05T09:36:12.971Z,2.95
2023-05-05T09:38:42.841Z,2.58
2023-05-05T09:41:11.201Z,2.30
2023-05-05T09:43:52.259Z,2.22
2023-05-05T09:46:20.433Z,2.38
2023-05-05T09:48:48.553Z,2.45
2023-05-05T09:51:16.889Z,2.63
2023-05-05T09:53:45.758Z,2.75
2023-05-05T09:56:15.932Z,3.25
2023-05-05T09:58:44.666Z,2.95
2023-05-05T10:01:24.931Z,2.83
2023-05-05T10:03:53.265Z,2.55
2023-05-05T10:06:48.783Z,2.20
2023-05-05T10:09:17.240Z,2.15
2023-05-05T10:11:47.910Z,1.70
2023-05-05T10:14:16.822Z,1.73
2023-05-05T10:16:51.200Z,1.80
2023-05-05T10:19:24.490Z,2.10
2023-05-05T10:21:54.563Z,1.98
2023-05-05T10:24:39.454Z,1.90
2023-05-05T10:27:17.044Z,2.03
2023-05-05T10:30:03.119Z,2.08
2023-05-05T10:35:24.099Z,1.73
2023-05-05T10:37:53.174Z,1.75
2023-05-05T10:40:25.283Z,1.90
2023-05-05T10:42:55.010Z,2.42
2023-05-05T10:45:23.868Z,2.17
2023-05-05T10:47:52.911Z,1.73
2023-05-05T10:50:56.244Z,1.80
2023-05-05T10:53:27.413Z,5.25
2023-05-05T10:56:37.482Z,1.77
2023-05-05T10:59:38.508Z,1.60
2023-05-05T11:02:22.812Z,1.73
2023-05-05T11:05:09.066Z,2.60
2023-05-05T11:07:38.624Z,1.67
2023-05-05T11:10:12.342Z,1.88
2023-05-05T11:13:05.755Z,1.77
2023-05-05T11:15:38.220Z,3.00
2023-05-05T11:18:08.291Z,1.90
2023-05-05T11:21:00.035Z,1.50
2023-05-05T11:23:29.029Z,1.55
2023-05-05T11:25:58.164Z,1.67
2023-05-05T11:28:33.607Z,5.65
2023-05-05T11:31:01.722Z,1.83
2023-05-05T11:33:38.682Z,1.80
2023-05-05T11:36:08.240Z,1.80
2023-05-05T11:38:39.488Z,2.20
2023-05-05T11:41:32.680Z,1.85
2023-05-05T11:44:17.271Z,1.40
2023-05-05T11:46:55.873Z,5.03
2023-05-05T11:49:30.218Z,2.83
2023-05-05T11:52:02.553Z,3.22
2023-05-05T11:54:31.511Z,2.70
2023-05-05T11:57:05.929Z,2.00
2023-05-05T11:59:49.797Z,3.17
2023-05-05T12:02:19.758Z,2.03
2023-05-05T12:04:48.674Z,1.60
2023-05-05T12:07:21.776Z,3.35
2023-05-05T12:09:50.477Z,1.95
2023-05-05T12:12:19.832Z,1.48
2023-05-05T12:14:55.245Z,1.70
2023-05-05T12:17:23.816Z,4.00
2023-05-05T12:19:53.904Z,1.80
2023-05-05T12:22:27.111Z,1.83
2023-05-05T12:25:08.098Z,2.80
2023-05-05T12:27:36.474Z,2.25
2023-05-05T12:30:16.721Z,2.10
2023-05-05T12:32:45.534Z,2.08
2023-05-05T12:35:17.813Z,2.53
2023-05-05T12:37:46.498Z,2.25
2023-05-05T12:40:42.847Z,2.88
2023-05-05T12:43:23.582Z,2.10
2023-05-05T12:46:12.666Z,1.73
2023-05-05T12:48:48.151Z,2.72
2023-05-05T12:51:21.367Z,1.85
2023-05-05T12:54:03.700Z,1.42
2023-05-05T12:56:35.795Z,2.15
2023-05-05T12:59:10.138Z,1.60
2023-05-05T13:01:57.730Z,1.90
2023-05-05T13:04:27.839Z,3.15
2023-05-05T13:07:28.559Z,2.10
2023-05-05T13:10:08.615Z,2.35
2023-05-05T13:12:37.778Z,2.58
2023-05-05T13:15:07.093Z,1.70
2023-05-05T13:17:36.630Z,1.60
2023-05-05T13:20:06.646Z,2.22
2023-05-05T13:22:34.898Z,2.30
2023-05-05T13:25:04.503Z,2.63
2023-05-05T13:27:32.971Z,2.08
2023-05-05T13:30:00.972Z,2.20
2023-05-05T13:32:31.682Z,1.98
2023-05-05T13:34:59.589Z,2.38
2023-05-05T13:37:28.185Z,6.40
2023-05-05T13:39:59.574Z,3.30
2023-05-05T13:42:27.738Z,3.83
2023-05-05T13:44:56.014Z,3.90
2023-05-05T13:47:24.544Z,2.75
2023-05-05T13:49:52.538Z,3.05
2023-05-05T13:52:20.511Z,2.92
2023-05-05T13:54:50.758Z,2.65
2023-05-05T13:57:18.722Z,2.80
2023-05-05T13:59:46.724Z,3.05
2023-05-05T14:02:25.531Z,2.88
2023-05-05T14:04:55.480Z,2.75
2023-05-05T14:07:23.442Z,3.20
2023-05-05T14:09:51.518Z,2.58
2023-05-05T14:12:19.685Z,2.38
2023-05-05T14:14:47.757Z,2.33
2023-05-05T14:17:15.639Z,3.28
2023-05-05T14:19:44.787Z,5.30
2023-05-05T14:22:12.802Z,3.95
2023-05-05T14:24:41.039Z,3.00
2023-05-05T14:27:09.502Z,3.28
2023-05-05T14:29:39.449Z,3.42
2023-05-05T14:32:07.654Z,5.10
2023-05-05T14:34:38.635Z,3.47
2023-05-05T14:37:07.063Z,3.08
2023-05-05T14:39:35.410Z,3.88
2023-05-05T14:42:03.621Z,3.30
2023-05-05T14:44:34.264Z,3.30
2023-05-05T14:47:04.758Z,3.50
2023-05-05T14:49:35.169Z,3.40
2023-05-05T14:52:04.321Z,3.60
2023-05-05T14:54:32.995Z,3.63
2023-05-05T14:57:01.265Z,3.92
2023-05-05T14:59:30.458Z,3.83
2023-05-05T15:01:59.749Z,3.75
2023-05-05T15:04:27.955Z,3.33
2023-05-05T15:06:57.415Z,3.53
2023-05-05T15:09:28.428Z,3.85
2023-05-05T15:11:56.418Z,4.32
2023-05-05T15:14:24.400Z,3.75
2023-05-05T15:16:52.758Z,4.03
2023-05-05T15:19:20.886Z,3.35
2023-05-05T15:21:54.255Z,4.07
2023-05-05T15:24:22.510Z,4.00
2023-05-05T15:26:50.579Z,3.58
2023-05-05T15:29:21.928Z,4.38
2023-05-05T15:31:50.101Z,4.35
2023-05-05T15:34:19.032Z,4.00
2023-05-05T15:36:47.467Z,4.00
2023-05-05T15:39:15.685Z,3.50
2023-05-05T15:41:46.430Z,3.95
2023-05-05T15:44:14.527Z,4.18
2023-05-05T15:46:42.707Z,3.53
2023-05-05T15:49:11.298Z,4.30
2023-05-05T15:51:39.715Z,4.95
2023-05-05T15:54:08.167Z,3.40
2023-05-05T15:56:36.225Z,3.92
2023-05-05T15:59:04.368Z,4.22
2023-05-05T16:01:36.795Z,4.47
2023-05-05T16:04:05.589Z,3.78
2023-05-05T16:06:33.717Z,3.42
2023-05-05T16:09:02.066Z,2.97
2023-05-05T16:11:30.435Z,3.67
2023-05-05T16:13:59.894Z,3.60
2023-05-05T16:16:31.329Z,3.50
2023-05-05T16:19:02.072Z,2.95
2023-05-05T16:21:30.343Z,4.30
2023-05-05T16:23:58.488Z,9.17
2023-05-05T16:26:26.631Z,8.93
2023-05-05T16:28:54.639Z,7.83
2023-05-05T16:31:22.709Z,7.07
2023-05-05T16:33:51.111Z,5.97
2023-05-05T16:36:21.459Z,6.30
2023-05-05T16:38:50.057Z,8.53
2023-05-05T16:41:18.158Z,6.60
2023-05-05T16:43:46.915Z,4.57
2023-05-05T16:46:15.561Z,3.80
2023-05-05T16:48:43.924Z,5.17
2023-05-05T16:51:15.124Z,4.67
2023-05-05T16:53:48.851Z,3.70
2023-05-05T16:56:17.219Z,4.03
2023-05-05T16:58:45.322Z,3.10
2023-05-05T17:01:14.675Z,3.30
2023-05-05T17:03:42.886Z,2.90
2023-05-05T17:06:14.799Z,3.80
2023-05-05T17:08:43.157Z,5.40
2023-05-05T17:11:12.747Z,5.50
2023-05-05T17:13:41.147Z,6.17
2023-05-05T17:16:09.599Z,4.97
2023-05-05T17:18:37.778Z,5.30
2023-05-05T17:21:06.619Z,5.77
2023-05-05T17:23:34.985Z,4.83
2023-05-05T17:26:03.436Z,5.03
2023-05-05T17:28:32.550Z,4.90
2023-05-05T17:31:02.136Z,6.13
2023-05-05T17:33:30.736Z,6.33
2023-05-05T17:35:59.176Z,8.53
2023-05-05T17:38:27.463Z,8.90
2023-05-05T17:40:55.352Z,16.50
2023-05-05T17:43:23.604Z,8.10
2023-05-05T17:45:51.864Z,16.90
2023-05-05T17:48:20.221Z,9.87
2023-05-05T17:50:48.206Z,11.73
2023-05-05T17:53:19.159Z,6.77
2023-05-05T17:55:47.675Z,6.67
2023-05-05T17:58:15.659Z,7.40
2023-05-05T18:00:43.875Z,5.63
2023-05-05T18:03:12.014Z,5.23
2023-05-05T18:05:40.275Z,4.80
2023-05-05T18:08:08.751Z,4.17
2023-05-05T18:10:37.236Z,3.70
2023-05-05T18:13:05.881Z,4.40
2023-05-05T18:15:34.636Z,3.70
2023-05-05T18:18:02.937Z,3.10
2023-05-05T18:20:31.211Z,3.63
2023-05-05T18:23:02.533Z,3.60
2023-05-05T18:25:30.851Z,3.70
2023-05-05T18:27:59.470Z,3.50
2023-05-05T18:30:27.822Z,3.47
2023-05-05T18:32:56.487Z,3.53
2023-05-05T18:35:26.736Z,4.03
2023-05-05T18:37:57.389Z,4.37
2023-05-05T18:40:25.883Z,4.30
2023-05-05T18:42:57.237Z,4.30
2023-05-05T18:45:25.444Z,4.40
2023-05-05T18:47:53.995Z,4.20
2023-05-05T18:50:22.487Z,6.23
2023-05-05T18:52:52.518Z,6.57
2023-05-05T18:55:22.911Z,7.33
2023-05-05T18:57:51.343Z,7.53
2023-05-05T19:00:28.949Z,7.70
2023-05-05T19:02:57.544Z,8.07
2023-05-05T19:05:25.828Z,7.50
2023-05-05T19:07:54.003Z,7.37
2023-05-05T19:10:22.170Z,7.93
2023-05-05T19:12:50.378Z,7.23
2023-05-05T19:15:18.964Z,7.93
2023-05-05T19:17:47.989Z,7.87
2023-05-05T19:20:16.344Z,8.80
2023-05-05T19:22:47.722Z,8.83
2023-05-05T19:25:17.079Z,7.67
2023-05-05T19:27:45.488Z,8.23
2023-05-05T19:30:13.991Z,7.33
2023-05-05T19:32:42.361Z,7.57
2023-05-05T19:35:12.274Z,6.93
2023-05-05T19:37:41.128Z,5.73
2023-05-05T19:40:09.684Z,6.37
2023-05-05T19:42:37.941Z,7.97
2023-05-05T19:45:09.645Z,9.70
2023-05-05T19:47:40.942Z,9.60
2023-05-05T19:50:09.816Z,9.77
2023-05-05T19:52:38.728Z,9.57
2023-05-05T19:55:07.700Z,10.27
2023-05-05T19:57:35.793Z,8.93
2023-05-05T20:00:04.181Z,8.27
2023-05-05T20:02:33.750Z,8.03
2023-05-05T20:05:03.302Z,8.43
2023-05-05T20:07:31.809Z,8.70
2023-05-05T20:10:01.531Z,7.53
2023-05-05T20:12:30.142Z,8.13
2023-05-05T20:14:59.698Z,8.97
2023-05-05T20:17:28.248Z,7.77
2023-05-05T20:19:58.072Z,6.90
2023-05-05T20:22:29.212Z,6.93
2023-05-05T20:24:58.540Z,7.23
2023-05-05T20:27:28.578Z,7.63
2023-05-05T20:29:57.090Z,7.33
2023-05-05T20:32:25.100Z,8.77
2023-05-05T20:34:53.470Z,8.70
2023-05-05T20:37:22.714Z,8.77
2023-05-05T20:39:51.327Z,8.13
2023-05-05T20:42:19.768Z,8.07
2023-05-05T20:44:48.076Z,8.47
2023-05-05T20:47:16.261Z,7.77
2023-05-05T20:49:44.258Z,7.73
2023-05-05T20:52:12.462Z,8.00
2023-05-05T20:54:40.660Z,8.80
2023-05-05T20:57:09.214Z,8.00
2023-05-05T20:59:38.347Z,7.97
2023-05-05T21:02:06.654Z,8.13
2023-05-05T21:04:35.057Z,7.60
2023-05-05T21:07:03.433Z,7.40
2023-05-05T21:09:32.063Z,7.20
2023-05-05T21:12:00.137Z,6.97
2023-05-05T21:14:29.919Z,6.80
2023-05-05T21:16:58.384Z,8.40
2023-05-05T21:19:26.955Z,8.20
2023-05-05T21:21:59.396Z,7.40
2023-05-05T21:24:28.422Z,6.80
2023-05-05T21:26:57.090Z,7.97
2023-05-05T21:29:25.323Z,8.53
2023-05-05T21:31:53.642Z,10.00
2023-05-05T21:34:22.134Z,11.03
2023-05-05T21:36:50.375Z,8.27
2023-05-05T21:39:19.682Z,6.27
2023-05-05T21:41:48.131Z,4.83
2023-05-05T21:44:16.611Z,4.50
2023-05-05T21:46:44.911Z,3.60
2023-05-05T21:49:16.956Z,3.00
2023-05-05T21:51:47.925Z,2.80
2023-05-05T21:54:17.713Z,3.07
2023-05-05T21:56:45.849Z,2.97
2023-05-05T21:59:15.845Z,2.63
2023-05-05T22:01:45.076Z,3.20
2023-05-05T22:04:14.439Z,3.33
2023-05-05T22:06:42.661Z,4.00
2023-05-05T22:09:14.057Z,4.40
2023-05-05T22:11:41.973Z,5.07
2023-05-05T22:14:10.793Z,7.43
2023-05-05T22:16:42.243Z,6.57
2023-05-05T22:19:10.858Z,7.47
2023-05-05T22:21:39.434Z,7.87
2023-05-05T22:24:07.993Z,9.27
2023-05-05T22:26:43.438Z,8.50
2023-05-05T22:29:11.689Z,9.13
2023-05-05T22:31:43.095Z,8.80
2023-05-05T22:34:11.802Z,8.70
2023-05-05T22:36:40.143Z,10.43
2023-05-05T22:39:11.389Z,10.10
2023-05-05T22:41:42.558Z,9.17
2023-05-05T22:44:13.548Z,9.17
2023-05-05T22:46:42.471Z,9.40
2023-05-05T22:49:10.733Z,9.93
2023-05-05T22:51:39.468Z,9.27
2023-05-05T22:54:07.653Z,8.73
2023-05-05T22:56:36.678Z,8.60
2023-05-05T22:59:05.938Z,8.67
2023-05-05T23:01:36.543Z,10.03
2023-05-05T23:04:08.495Z,9.33
2023-05-05T23:06:40.218Z,9.10
2023-05-05T23:09:10.797Z,9.50
2023-05-05T23:11:45.654Z,9.40
2023-05-05T23:14:14.395Z,9.80
2023-05-05T23:16:42.836Z,8.80
2023-05-05T23:19:13.381Z,9.00
2023-05-05T23:21:52.500Z,9.17
2023-05-05T23:24:22.534Z,9.17
2023-05-05T23:26:52.392Z,8.40
2023-05-05T23:29:20.986Z,7.83
2023-05-05T23:31:49.721Z,8.27
2023-05-05T23:34:18.063Z,7.23
2023-05-05T23:36:51.684Z,8.00
2023-05-05T23:39:20.256Z,8.20
2023-05-05T23:41:48.242Z,7.43
2023-05-05T23:44:16.145Z,7.60
2023-05-05T23:46:47.158Z,7.53
2023-05-05T23:49:15.378Z,6.13
2023-05-05T23:51:43.330Z,5.27
2023-05-05T23:54:11.368Z,5.93
2023-05-05T23:56:41.424Z,7.70
2023-05-05T23:59:09.980Z,8.57
